Temp: 8.2°C   Baro: 1005.7mb
  Wind: 2.0mph   Dir: WSW (254°)
  Rain: 0.6mm (0.0mm/hr)
  Sun: 0W/m2  Humidity: 94%

Historic data

Bath Spa Weather Station Historical Data
Daily Summary for October 11, 2022 Units:  Both    English   Metric
Daily Weekly Monthly Yearly Custom
  High: Low: Average:
Temperature: 62.1 °F /  16.7 °C 36.1 °F /  2.3 °C 47.7 °F /  8.7 °C
Dew Point: 48.1 °F /  8.9 °C 33.9 °F /  1.1 °C 41 °F /  5 °C
Humidity: 92% 55.2% 79%
Wind Speed: 3.1mph /  5km/h - 0.5mph /  0.8km/h
Wind Gust: 7mph /  11.3km/h - -
Wind- - South
Pressure: 30.39 in /  1029 hPa 30.26 in /  1024.6 hPa -
Precipitation: 0.00 in /  0 mm    
Historical Graphs
 
 
Tabular Data for October 11, 2022
Time Temperature Dew Point Pressure Wind Wind Speed Wind Gust Humidity Rainfall Rate (Hourly) solar
00:09 42.1 °F /  5.6 °C 38.5 °F /  3.6 °C 30.36in /  1028hPa Calm     87.2% 0.00in /  0mm 0 W/m2
00:14 41.9 °F /  5.5 °C 38.7 °F /  3.7 °C 30.36in /  1028hPa Calm     88% 0.00in /  0mm 0 W/m2
00:19 41.8 °F /  5.4 °C 38.6 °F /  3.7 °C 30.35in /  1027.7hPa Calm     88% 0.00in /  0mm 0 W/m2
00:24 42 °F /  5.6 °C 38.8 °F /  3.8 °C 30.35in /  1027.7hPa Calm     88% 0.00in /  0mm 0 W/m2
00:29 41.9 °F /  5.5 °C 38.7 °F /  3.7 °C 30.36in /  1028hPa Calm     88% 0.00in /  0mm 0 W/m2
00:34 41.6 °F /  5.3 °C 38.3 °F /  3.5 °C 30.36in /  1028hPa Calm     88% 0.00in /  0mm 0 W/m2
00:39 41.4 °F /  5.2 °C 38.1 °F /  3.4 °C 30.36in /  1028hPa North 1mph /  1.6km/h 3mph /  4.8km/h 88% 0.00in /  0mm 0 W/m2
00:44 41.4 °F /  5.2 °C 38.1 °F /  3.4 °C 30.36in /  1028hPa Calm     88% 0.00in /  0mm 0 W/m2
00:49 41.4 °F /  5.2 °C 38.2 °F /  3.4 °C 30.36in /  1028hPa Calm     88.6% 0.00in /  0mm 0 W/m2
00:54 41.4 °F /  5.2 °C 38.2 °F /  3.4 °C 30.36in /  1028hPa Calm     88.8% 0.00in /  0mm 0 W/m2
00:59 41.3 °F /  5.2 °C 38.1 °F /  3.4 °C 30.36in /  1028hPa Calm     88.6% 0.00in /  0mm 0 W/m2
01:04 41.2 °F /  5.1 °C 38.1 °F /  3.4 °C 30.36in /  1028hPa Calm     89% 0.00in /  0mm 0 W/m2
01:09 41.2 °F /  5.1 °C 38.1 °F /  3.4 °C 30.36in /  1028hPa North 0.2mph /  0.3km/h 1mph /  1.6km/h 89% 0.00in /  0mm 0 W/m2
01:14 41 °F /  5 °C 38 °F /  3.3 °C 30.36in /  1028hPa Calm   1mph /  1.6km/h 89% 0.00in /  0mm 0 W/m2
01:19 40.6 °F /  4.8 °C 37.5 °F /  3.1 °C 30.36in /  1028hPa North 0.2mph /  0.3km/h 1mph /  1.6km/h 89% 0.00in /  0mm 0 W/m2
01:24 40.5 °F /  4.7 °C 37.4 °F /  3 °C 30.36in /  1028hPa Calm     89% 0.00in /  0mm 0 W/m2
01:29 40.5 °F /  4.7 °C 37.4 °F /  3 °C 30.36in /  1028hPa North 0.2mph /  0.3km/h 1mph /  1.6km/h 89% 0.00in /  0mm 0 W/m2
01:34 40.5 °F /  4.7 °C 37.4 °F /  3 °C 30.36in /  1028hPa Calm   1mph /  1.6km/h 89% 0.00in /  0mm 0 W/m2
01:39 40.5 °F /  4.7 °C 37.4 °F /  3 °C 30.37in /  1028.3hPa North 0.2mph /  0.3km/h 1mph /  1.6km/h 89% 0.00in /  0mm 0 W/m2
01:44 40.3 °F /  4.6 °C 37.2 °F /  2.9 °C 30.36in /  1028hPa North 1.2mph /  1.9km/h 3mph /  4.8km/h 89% 0.00in /  0mm 0 W/m2
01:49 40.3 °F /  4.6 °C 37.2 °F /  2.9 °C 30.36in /  1028hPa North 0.4mph /  0.6km/h 2mph /  3.2km/h 89% 0.00in /  0mm 0 W/m2
01:54 40.3 °F /  4.6 °C 37.2 °F /  2.9 °C 30.36in /  1028hPa Calm   1mph /  1.6km/h 89% 0.00in /  0mm 0 W/m2
01:59 40 °F /  4.4 °C 36.9 °F /  2.7 °C 30.37in /  1028.3hPa Calm     89% 0.00in /  0mm 0 W/m2
02:04 39.9 °F /  4.4 °C 36.9 °F /  2.7 °C 30.37in /  1028.3hPa Calm     89% 0.00in /  0mm 0 W/m2
02:09 39.9 °F /  4.4 °C 36.9 °F /  2.7 °C 30.36in /  1028hPa Calm     89% 0.00in /  0mm 0 W/m2
02:14 39.7 °F /  4.3 °C 37 °F /  2.8 °C 30.36in /  1028hPa Calm     89.8% 0.00in /  0mm 0 W/m2
02:19 39.7 °F /  4.3 °C 37 °F /  2.8 °C 30.36in /  1028hPa North 0.5mph /  0.8km/h 2mph /  3.2km/h 90% 0.00in /  0mm 0 W/m2
02:24 39.6 °F /  4.2 °C 36.9 °F /  2.7 °C 30.36in /  1028hPa North 0.5mph /  0.8km/h 2mph /  3.2km/h 90% 0.00in /  0mm 0 W/m2
02:29 39.6 °F /  4.2 °C 36.9 °F /  2.7 °C 30.36in /  1028hPa North 0.4mph /  0.6km/h 2mph /  3.2km/h 90% 0.00in /  0mm 0 W/m2
02:34 39.6 °F /  4.2 °C 36.9 °F /  2.7 °C 30.36in /  1028hPa Calm   2mph /  3.2km/h 90% 0.00in /  0mm 0 W/m2
02:39 39.6 °F /  4.2 °C 36.9 °F /  2.7 °C 30.37in /  1028.3hPa Calm   1mph /  1.6km/h 90% 0.00in /  0mm 0 W/m2
02:44 39.4 °F /  4.1 °C 36.7 °F /  2.6 °C 30.36in /  1028hPa Calm   1mph /  1.6km/h 90% 0.00in /  0mm 0 W/m2
02:49 39.3 °F /  4.1 °C 36.6 °F /  2.6 °C 30.36in /  1028hPa North 0.4mph /  0.6km/h 1mph /  1.6km/h 90% 0.00in /  0mm 0 W/m2
02:54 39.2 °F /  4 °C 36.5 °F /  2.5 °C 30.36in /  1028hPa Calm   1mph /  1.6km/h 90% 0.00in /  0mm 0 W/m2
02:59 39.1 °F /  3.9 °C 36.4 °F /  2.4 °C 30.36in /  1028hPa Calm   1mph /  1.6km/h 90% 0.00in /  0mm 0 W/m2
03:04 39 °F /  3.9 °C 36.3 °F /  2.4 °C 30.36in /  1028hPa Calm   1mph /  1.6km/h 90% 0.00in /  0mm 0 W/m2
03:09 39 °F /  3.9 °C 36.3 °F /  2.4 °C 30.35in /  1027.7hPa Calm     90% 0.00in /  0mm 0 W/m2
03:14 39 °F /  3.9 °C 36.3 °F /  2.4 °C 30.35in /  1027.7hPa Calm     90% 0.00in /  0mm 0 W/m2
03:19 39 °F /  3.9 °C 36.3 °F /  2.4 °C 30.35in /  1027.7hPa Calm     90% 0.00in /  0mm 0 W/m2
03:24 38.9 °F /  3.8 °C 36.2 °F /  2.3 °C 30.35in /  1027.7hPa Calm     90% 0.00in /  0mm 0 W/m2
03:29 38.7 °F /  3.7 °C 36 °F /  2.2 °C 30.35in /  1027.7hPa Calm     90% 0.00in /  0mm 0 W/m2
03:34 38.6 °F /  3.7 °C 35.9 °F /  2.2 °C 30.35in /  1027.7hPa North 1mph /  1.6km/h 3mph /  4.8km/h 90% 0.00in /  0mm 0 W/m2
03:39 38.5 °F /  3.6 °C 35.8 °F /  2.1 °C 30.35in /  1027.7hPa North 1.8mph /  2.9km/h 3mph /  4.8km/h 90% 0.00in /  0mm 0 W/m2
03:44 38.7 °F /  3.7 °C 36.3 °F /  2.4 °C 30.35in /  1027.7hPa North 1.1mph /  1.8km/h 3mph /  4.8km/h 91% 0.00in /  0mm 0 W/m2
03:49 38.7 °F /  3.7 °C 36.3 °F /  2.4 °C 30.35in /  1027.7hPa Calm   1mph /  1.6km/h 91% 0.00in /  0mm 0 W/m2
03:54 38.7 °F /  3.7 °C 36.2 °F /  2.3 °C 30.35in /  1027.7hPa Calm   1mph /  1.6km/h 90.8% 0.00in /  0mm 0 W/m2
03:59 38.7 °F /  3.7 °C 36.3 °F /  2.4 °C 30.35in /  1027.7hPa North 0.2mph /  0.3km/h 1mph /  1.6km/h 91% 0.00in /  0mm 0 W/m2
04:04 38.6 °F /  3.7 °C 36.2 °F /  2.3 °C 30.35in /  1027.7hPa Calm     91% 0.00in /  0mm 0 W/m2
04:09 38.5 °F /  3.6 °C 36.1 °F /  2.3 °C 30.35in /  1027.7hPa Calm     91% 0.00in /  0mm 0 W/m2
04:14 38.3 °F /  3.5 °C 36 °F /  2.2 °C 30.35in /  1027.7hPa Calm     91% 0.00in /  0mm 0 W/m2
04:19 38.2 °F /  3.4 °C 35.9 °F /  2.2 °C 30.35in /  1027.7hPa Calm     91% 0.00in /  0mm 0 W/m2
04:24 38.1 °F /  3.4 °C 35.8 °F /  2.1 °C 30.35in /  1027.7hPa Calm     91% 0.00in /  0mm 0 W/m2
04:29 38.1 °F /  3.4 °C 35.8 °F /  2.1 °C 30.35in /  1027.7hPa Calm     91% 0.00in /  0mm 0 W/m2
04:34 38 °F /  3.3 °C 35.7 °F /  2.1 °C 30.34in /  1027.3hPa Calm     91% 0.00in /  0mm 0 W/m2
04:39 37.9 °F /  3.3 °C 35.6 °F /  2 °C 30.35in /  1027.7hPa Calm     91% 0.00in /  0mm 0 W/m2
04:44 37.9 °F /  3.3 °C 35.6 °F /  2 °C 30.35in /  1027.7hPa Calm     91% 0.00in /  0mm 0 W/m2
04:49 37.9 °F /  3.3 °C 35.6 °F /  2 °C 30.35in /  1027.7hPa Calm     91% 0.00in /  0mm 0 W/m2
04:54 37.8 °F /  3.2 °C 35.4 °F /  1.9 °C 30.35in /  1027.7hPa Calm     91% 0.00in /  0mm 0 W/m2
04:59 37.7 °F /  3.2 °C 35.3 °F /  1.8 °C 30.35in /  1027.7hPa Calm     91% 0.00in /  0mm 0 W/m2
05:04 37.6 °F /  3.1 °C 35.2 °F /  1.8 °C 30.35in /  1027.7hPa Calm     91% 0.00in /  0mm 0 W/m2
05:09 37.6 °F /  3.1 °C 35.2 °F /  1.8 °C 30.35in /  1027.7hPa North 0.2mph /  0.3km/h 2mph /  3.2km/h 91% 0.00in /  0mm 0 W/m2
05:14 37.6 °F /  3.1 °C 35.2 °F /  1.8 °C 30.35in /  1027.7hPa North 0.2mph /  0.3km/h 2mph /  3.2km/h 91% 0.00in /  0mm 0 W/m2
05:19 37.5 °F /  3.1 °C 35.2 °F /  1.8 °C 30.35in /  1027.7hPa Calm   1mph /  1.6km/h 91% 0.00in /  0mm 0 W/m2
05:24 37.3 °F /  2.9 °C 35 °F /  1.7 °C 30.36in /  1028hPa Calm     91% 0.00in /  0mm 0 W/m2
05:29 37.2 °F /  2.9 °C 34.9 °F /  1.6 °C 30.36in /  1028hPa Calm     91% 0.00in /  0mm 0 W/m2
05:34 37.2 °F /  2.9 °C 34.8 °F /  1.6 °C 30.36in /  1028hPa Calm     91% 0.00in /  0mm 0 W/m2
05:39 37 °F /  2.8 °C 34.7 °F /  1.5 °C 30.36in /  1028hPa Calm     91% 0.00in /  0mm 0 W/m2
05:44 37 °F /  2.8 °C 34.7 °F /  1.5 °C 30.36in /  1028hPa Calm     91% 0.00in /  0mm 0 W/m2
05:49 37.1 °F /  2.8 °C 34.8 °F /  1.6 °C 30.36in /  1028hPa Calm   1mph /  1.6km/h 91% 0.00in /  0mm 0 W/m2
05:54 37 °F /  2.8 °C 34.7 °F /  1.5 °C 30.36in /  1028hPa North 0.8mph /  1.3km/h 2mph /  3.2km/h 91% 0.00in /  0mm 0 W/m2
05:59 36.9 °F /  2.7 °C 34.5 °F /  1.4 °C 30.36in /  1028hPa Calm   2mph /  3.2km/h 91% 0.00in /  0mm 0 W/m2
06:04 36.9 °F /  2.7 °C 34.5 °F /  1.4 °C 30.36in /  1028hPa North 0.4mph /  0.6km/h 2mph /  3.2km/h 91% 0.00in /  0mm 0 W/m2
06:09 36.7 °F /  2.6 °C 34.3 °F /  1.3 °C 30.36in /  1028hPa North 0.4mph /  0.6km/h 2mph /  3.2km/h 91% 0.00in /  0mm 0 W/m2
06:14 36.5 °F /  2.5 °C 34.2 °F /  1.2 °C 30.36in /  1028hPa North 0.4mph /  0.6km/h 3mph /  4.8km/h 91% 0.00in /  0mm 0 W/m2
06:19 36.5 °F /  2.5 °C 34.3 °F /  1.3 °C 30.36in /  1028hPa North 0.8mph /  1.3km/h 2mph /  3.2km/h 92% 0.00in /  0mm 0 W/m2
06:24 36.5 °F /  2.5 °C 34.3 °F /  1.3 °C 30.37in /  1028.3hPa North 0.2mph /  0.3km/h 2mph /  3.2km/h 92% 0.00in /  0mm 0 W/m2
06:29 36.4 °F /  2.4 °C 34.2 °F /  1.2 °C 30.37in /  1028.3hPa North 0.8mph /  1.3km/h 2mph /  3.2km/h 92% 0.00in /  0mm 0 W/m2
06:34 36.3 °F /  2.4 °C 34.2 °F /  1.2 °C 30.37in /  1028.3hPa North 0.4mph /  0.6km/h 2mph /  3.2km/h 92% 0.00in /  0mm 0 W/m2
06:39 36.3 °F /  2.4 °C 34.2 °F /  1.2 °C 30.37in /  1028.3hPa Calm   2mph /  3.2km/h 92% 0.00in /  0mm 0 W/m2
06:44 36.1 °F /  2.3 °C 34 °F /  1.1 °C 30.37in /  1028.3hPa Calm   1mph /  1.6km/h 91.8% 0.00in /  0mm 0 W/m2
06:49 36.1 °F /  2.3 °C 34 °F /  1.1 °C 30.37in /  1028.3hPa Calm     92% 0.00in /  0mm 0 W/m2
06:54 36.1 °F /  2.3 °C 34 °F /  1.1 °C 30.37in /  1028.3hPa Calm     92% 0.00in /  0mm 0 W/m2
06:59 36.1 °F /  2.3 °C 33.9 °F /  1.1 °C 30.37in /  1028.3hPa Calm     92% 0.00in /  0mm 0 W/m2
07:04 36.3 °F /  2.4 °C 34.1 °F /  1.2 °C 30.37in /  1028.3hPa Calm     92% 0.00in /  0mm 0 W/m2
07:09 36.9 °F /  2.7 °C 34.7 °F /  1.5 °C 30.37in /  1028.3hPa Calm     92% 0.00in /  0mm 0 W/m2
07:14 37.2 °F /  2.9 °C 35 °F /  1.7 °C 30.37in /  1028.3hPa North 0.2mph /  0.3km/h 1mph /  1.6km/h 92% 0.00in /  0mm 0 W/m2
07:19 38.5 °F /  3.6 °C 36.4 °F /  2.4 °C 30.37in /  1028.3hPa Calm   1mph /  1.6km/h 92% 0.00in /  0mm 0 W/m2
07:24 38.1 °F /  3.4 °C 35.9 °F /  2.2 °C 30.37in /  1028.3hPa North 0.2mph /  0.3km/h 1mph /  1.6km/h 92% 0.00in /  0mm 0 W/m2
07:29 38.1 °F /  3.4 °C 36 °F /  2.2 °C 30.37in /  1028.3hPa Calm   1mph /  1.6km/h 92% 0.00in /  0mm 0 W/m2
07:34 38.8 °F /  3.8 °C 36.7 °F /  2.6 °C 30.37in /  1028.3hPa North 0.4mph /  0.6km/h 2mph /  3.2km/h 92% 0.00in /  0mm 5 W/m2
07:39 39.2 °F /  4 °C 37.1 °F /  2.8 °C 30.37in /  1028.3hPa Calm     92% 0.00in /  0mm 7 W/m2
07:44 39.9 °F /  4.4 °C 37.8 °F /  3.2 °C 30.37in /  1028.3hPa Calm     92% 0.00in /  0mm 9 W/m2
07:49 40.3 °F /  4.6 °C 38.1 °F /  3.4 °C 30.37in /  1028.3hPa Calm   1mph /  1.6km/h 92% 0.00in /  0mm 11 W/m2
07:54 40.6 °F /  4.8 °C 38.5 °F /  3.6 °C 30.37in /  1028.3hPa Calm   1mph /  1.6km/h 92% 0.00in /  0mm 16 W/m2
07:59 40.9 °F /  4.9 °C 38.7 °F /  3.7 °C 30.38in /  1028.7hPa Calm   1mph /  1.6km/h 92% 0.00in /  0mm 18 W/m2
08:04 41.5 °F /  5.3 °C 39.3 °F /  4.1 °C 30.38in /  1028.7hPa Calm   1mph /  1.6km/h 92% 0.00in /  0mm 19 W/m2
08:09 41.2 °F /  5.1 °C 39 °F /  3.9 °C 30.38in /  1028.7hPa Calm   1mph /  1.6km/h 92% 0.00in /  0mm 21 W/m2
08:14 40.3 °F /  4.6 °C 38 °F /  3.3 °C 30.37in /  1028.3hPa North 0.2mph /  0.3km/h 2mph /  3.2km/h 91% 0.00in /  0mm 23 W/m2
08:19 39.5 °F /  4.2 °C 37.2 °F /  2.9 °C 30.38in /  1028.7hPa North 1.1mph /  1.8km/h 2mph /  3.2km/h 91% 0.00in /  0mm 25 W/m2
08:24 40.2 °F /  4.6 °C 37.8 °F /  3.2 °C 30.38in /  1028.7hPa NNE 0.6mph /  1km/h 2mph /  3.2km/h 91% 0.00in /  0mm 26 W/m2
08:29 40.3 °F /  4.6 °C 37.9 °F /  3.3 °C 30.38in /  1028.7hPa Calm   1mph /  1.6km/h 91% 0.00in /  0mm 28 W/m2
08:34 40 °F /  4.4 °C 37.6 °F /  3.1 °C 30.38in /  1028.7hPa Calm     91% 0.00in /  0mm 30 W/m2
08:39 39.9 °F /  4.4 °C 37.5 °F /  3.1 °C 30.38in /  1028.7hPa Calm     90.8% 0.00in /  0mm 32 W/m2
08:44 40.5 °F /  4.7 °C 38.1 °F /  3.4 °C 30.38in /  1028.7hPa Calm     91% 0.00in /  0mm 37 W/m2
08:49 40.6 °F /  4.8 °C 38 °F /  3.3 °C 30.38in /  1028.7hPa Calm     90.2% 0.00in /  0mm 46 W/m2
08:54 41.2 °F /  5.1 °C 38.5 °F /  3.6 °C 30.38in /  1028.7hPa Calm     90% 0.00in /  0mm 56 W/m2
08:59 41.5 °F /  5.3 °C 38.8 °F /  3.8 °C 30.38in /  1028.7hPa Calm     90% 0.00in /  0mm 70 W/m2
09:04 41.5 °F /  5.3 °C 38.8 °F /  3.8 °C 30.38in /  1028.7hPa Calm     90% 0.00in /  0mm 81 W/m2
09:09 42.7 °F /  5.9 °C 40 °F /  4.4 °C 30.38in /  1028.7hPa Calm     90% 0.00in /  0mm 95 W/m2
09:14 42.4 °F /  5.8 °C 39.4 °F /  4.1 °C 30.38in /  1028.7hPa Calm     89% 0.00in /  0mm 109 W/m2
09:19 42.3 °F /  5.7 °C 39.1 °F /  3.9 °C 30.38in /  1028.7hPa Calm     88.6% 0.00in /  0mm 123 W/m2
09:24 42 °F /  5.6 °C 38.8 °F /  3.8 °C 30.38in /  1028.7hPa Calm     88% 0.00in /  0mm 137 W/m2
09:29 42.2 °F /  5.7 °C 38.8 °F /  3.8 °C 30.39in /  1029hPa Calm     87.6% 0.00in /  0mm 153 W/m2
09:34 42.7 °F /  5.9 °C 39.1 °F /  3.9 °C 30.38in /  1028.7hPa Calm     87% 0.00in /  0mm 167 W/m2
09:39 43.2 °F /  6.2 °C 39.4 °F /  4.1 °C 30.38in /  1028.7hPa Calm     86.6% 0.00in /  0mm 181 W/m2
09:44 43.9 °F /  6.6 °C 40 °F /  4.4 °C 30.39in /  1029hPa Calm     86% 0.00in /  0mm 195 W/m2
09:49 44.6 °F /  7 °C 40.6 °F /  4.8 °C 30.39in /  1029hPa Calm     85.8% 0.00in /  0mm 209 W/m2
09:54 45.4 °F /  7.4 °C 41.1 °F /  5.1 °C 30.39in /  1029hPa Calm     85% 0.00in /  0mm 221 W/m2
09:59 45.9 °F /  7.7 °C 41.2 °F /  5.1 °C 30.39in /  1029hPa Calm     83.4% 0.00in /  0mm 236 W/m2
10:04 46 °F /  7.8 °C 41 °F /  5 °C 30.39in /  1029hPa Calm     82.6% 0.00in /  0mm 246 W/m2
10:09 46.5 °F /  8.1 °C 41.3 °F /  5.2 °C 30.38in /  1028.7hPa Calm     82% 0.00in /  0mm 257 W/m2
10:14 46.9 °F /  8.3 °C 41.4 °F /  5.2 °C 30.39in /  1029hPa Calm     81.2% 0.00in /  0mm 267 W/m2
10:19 47.7 °F /  8.7 °C 41.9 °F /  5.5 °C 30.38in /  1028.7hPa Calm     80.6% 0.00in /  0mm 278 W/m2
10:24 48.5 °F /  9.2 °C 42.4 °F /  5.8 °C 30.38in /  1028.7hPa Calm     79.6% 0.00in /  0mm 294 W/m2
10:29 49.2 °F /  9.6 °C 42.8 °F /  6 °C 30.38in /  1028.7hPa Calm     78.6% 0.00in /  0mm 304 W/m2
10:34 50.1 °F /  10.1 °C 43.4 °F /  6.3 °C 30.38in /  1028.7hPa Calm     77.8% 0.00in /  0mm 316 W/m2
10:39 51.3 °F /  10.7 °C 44.2 °F /  6.8 °C 30.38in /  1028.7hPa Calm     76.8% 0.00in /  0mm 327 W/m2
10:44 52.2 °F /  11.2 °C 44.3 °F /  6.8 °C 30.38in /  1028.7hPa Calm     74.8% 0.00in /  0mm 339 W/m2
10:49 52.2 °F /  11.2 °C 43.9 °F /  6.6 °C 30.39in /  1029hPa Calm     73.4% 0.00in /  0mm 352 W/m2
10:54 52.4 °F /  11.3 °C 44 °F /  6.7 °C 30.38in /  1028.7hPa WSW 0.4mph /  0.6km/h 1mph /  1.6km/h 73% 0.00in /  0mm 369 W/m2
10:59 53.2 °F /  11.8 °C 44.8 °F /  7.1 °C 30.38in /  1028.7hPa WSW 0.2mph /  0.3km/h 1mph /  1.6km/h 73% 0.00in /  0mm 380 W/m2
11:04 54 °F /  12.2 °C 45.1 °F /  7.3 °C 30.38in /  1028.7hPa Calm   1mph /  1.6km/h 72% 0.00in /  0mm 388 W/m2
11:09 54.5 °F /  12.5 °C 45.4 °F /  7.4 °C 30.38in /  1028.7hPa WSW 0.2mph /  0.3km/h 1mph /  1.6km/h 71.2% 0.00in /  0mm 399 W/m2
11:14 54.9 °F /  12.7 °C 45.6 °F /  7.6 °C 30.38in /  1028.7hPa WSW 0.2mph /  0.3km/h 1mph /  1.6km/h 70.6% 0.00in /  0mm 410 W/m2
11:19 55.5 °F /  13.1 °C 45.8 °F /  7.7 °C 30.38in /  1028.7hPa SW 0.2mph /  0.3km/h 2mph /  3.2km/h 69.6% 0.00in /  0mm 418 W/m2
11:24 56.3 °F /  13.5 °C 46.2 °F /  7.9 °C 30.38in /  1028.7hPa SE 1.1mph /  1.8km/h 3mph /  4.8km/h 69% 0.00in /  0mm 424 W/m2
11:29 57.2 °F /  14 °C 46.6 °F /  8.1 °C 30.38in /  1028.7hPa Calm   2mph /  3.2km/h 67.6% 0.00in /  0mm 434 W/m2
11:34 57.1 °F /  13.9 °C 45.9 °F /  7.7 °C 30.37in /  1028.3hPa SE 0.8mph /  1.3km/h 3mph /  4.8km/h 66.2% 0.00in /  0mm 445 W/m2
11:39 56.5 °F /  13.6 °C 46.4 °F /  8 °C 30.37in /  1028.3hPa SSE 0.2mph /  0.3km/h 1mph /  1.6km/h 68.8% 0.00in /  0mm 450 W/m2
11:44 56.4 °F /  13.6 °C 46.2 °F /  7.9 °C 30.37in /  1028.3hPa ESE 1.6mph /  2.6km/h 6mph /  9.7km/h 68.6% 0.00in /  0mm 441 W/m2
11:49 56.9 °F /  13.8 °C 46.9 °F /  8.3 °C 30.37in /  1028.3hPa ESE 1.7mph /  2.7km/h 6mph /  9.7km/h 69.2% 0.00in /  0mm 438 W/m2
11:54 57.4 °F /  14.1 °C 46.9 °F /  8.3 °C 30.37in /  1028.3hPa SE 0.4mph /  0.6km/h 3mph /  4.8km/h 68% 0.00in /  0mm 431 W/m2
11:59 57.7 °F /  14.3 °C 47.2 °F /  8.4 °C 30.37in /  1028.3hPa SE 1.4mph /  2.3km/h 3mph /  4.8km/h 68% 0.00in /  0mm 410 W/m2
12:04 57.6 °F /  14.2 °C 46.8 °F /  8.2 °C 30.37in /  1028.3hPa SE 2.1mph /  3.4km/h 5mph /  8km/h 67% 0.00in /  0mm 376 W/m2
12:09 57 °F /  13.9 °C 46.1 °F /  7.8 °C 30.37in /  1028.3hPa ESE 2.1mph /  3.4km/h 7mph /  11.3km/h 66.8% 0.00in /  0mm 443 W/m2
12:14 57.6 °F /  14.2 °C 46.7 °F /  8.2 °C 30.37in /  1028.3hPa ESE 1.8mph /  2.9km/h 5mph /  8km/h 66.8% 0.00in /  0mm 469 W/m2
12:19 57.7 °F /  14.3 °C 46.3 °F /  7.9 °C 30.37in /  1028.3hPa SSE 2.5mph /  4km/h 6mph /  9.7km/h 65.6% 0.00in /  0mm 485 W/m2
12:24 56.9 °F /  13.8 °C 45.8 °F /  7.7 °C 30.37in /  1028.3hPa ENE 1.2mph /  1.9km/h 4mph /  6.4km/h 66.3% 0.00in /  0mm 499 W/m2
12:29 57.6 °F /  14.2 °C 46.6 °F /  8.1 °C 30.37in /  1028.3hPa South 1.9mph /  3.1km/h 4mph /  6.4km/h 66.8% 0.00in /  0mm 501 W/m2
12:34 57.8 °F /  14.3 °C 46.7 °F /  8.2 °C 30.37in /  1028.3hPa ESE 2.9mph /  4.7km/h 7mph /  11.3km/h 66.4% 0.00in /  0mm 504 W/m2
12:39 58.9 °F /  14.9 °C 47 °F /  8.3 °C 30.37in /  1028.3hPa ESE 1.7mph /  2.7km/h 7mph /  11.3km/h 64.6% 0.00in /  0mm 499 W/m2
12:44 59.1 °F /  15.1 °C 46.5 °F /  8.1 °C 30.37in /  1028.3hPa ESE 2.5mph /  4km/h 4mph /  6.4km/h 63% 0.00in /  0mm 438 W/m2
12:49 59.4 °F /  15.2 °C 46.8 °F /  8.2 °C 30.37in /  1028.3hPa ESE 1.9mph /  3.1km/h 6mph /  9.7km/h 62.8% 0.00in /  0mm 526 W/m2
12:54 59.5 °F /  15.3 °C 46 °F /  7.8 °C 30.37in /  1028.3hPa ESE 1.3mph /  2.1km/h 6mph /  9.7km/h 60.8% 0.00in /  0mm 531 W/m2
12:59 60.6 °F /  15.9 °C 47.2 °F /  8.4 °C 30.36in /  1028hPa NE 2mph /  3.2km/h 4mph /  6.4km/h 61.4% 0.00in /  0mm 529 W/m2
13:04 61.6 °F /  16.4 °C 46.8 °F /  8.2 °C 30.36in /  1028hPa NNE 1.6mph /  2.6km/h 4mph /  6.4km/h 58% 0.00in /  0mm 519 W/m2
13:09 61.6 °F /  16.4 °C 46.7 °F /  8.2 °C 30.36in /  1028hPa North 0.5mph /  0.8km/h 3mph /  4.8km/h 58% 0.00in /  0mm 508 W/m2
13:14 60.7 °F /  15.9 °C 46.1 °F /  7.8 °C 30.35in /  1027.7hPa SSE 2.9mph /  4.7km/h 5mph /  8km/h 58.6% 0.00in /  0mm 501 W/m2
13:19 59.5 °F /  15.3 °C 45.9 °F /  7.7 °C 30.35in /  1027.7hPa SSE 1.7mph /  2.7km/h 4mph /  6.4km/h 60.6% 0.00in /  0mm 487 W/m2
13:24 60.6 °F /  15.9 °C 46.8 °F /  8.2 °C 30.35in /  1027.7hPa ENE 1.5mph /  2.4km/h 4mph /  6.4km/h 60.4% 0.00in /  0mm 480 W/m2
13:29 61.2 °F /  16.2 °C 46.4 °F /  8 °C 30.35in /  1027.7hPa East 1.9mph /  3.1km/h 5mph /  8km/h 58.4% 0.00in /  0mm 494 W/m2
13:34 60.7 °F /  15.9 °C 45.8 °F /  7.7 °C 30.35in /  1027.7hPa SE 2.7mph /  4.3km/h 6mph /  9.7km/h 58% 0.00in /  0mm 508 W/m2
13:39 59.2 °F /  15.1 °C 45.1 °F /  7.3 °C 30.35in /  1027.7hPa SE 2.4mph /  3.9km/h 6mph /  9.7km/h 59.6% 0.00in /  0mm 504 W/m2
13:44 59.3 °F /  15.2 °C 45.6 °F /  7.6 °C 30.34in /  1027.3hPa ESE 1.7mph /  2.7km/h 4mph /  6.4km/h 60.6% 0.00in /  0mm 499 W/m2
13:49 59.7 °F /  15.4 °C 45.6 °F /  7.6 °C 30.34in /  1027.3hPa SE 1.6mph /  2.6km/h 5mph /  8km/h 59.6% 0.00in /  0mm 438 W/m2
13:54 59.9 °F /  15.5 °C 45.9 °F /  7.7 °C 30.34in /  1027.3hPa SSE 2.1mph /  3.4km/h 5mph /  8km/h 59.6% 0.00in /  0mm 526 W/m2
13:59 59.7 °F /  15.4 °C 45.4 °F /  7.4 °C 30.34in /  1027.3hPa SE 2.1mph /  3.4km/h 6mph /  9.7km/h 59.2% 0.00in /  0mm 520 W/m2
14:04 60.2 °F /  15.7 °C 45.9 °F /  7.7 °C 30.34in /  1027.3hPa SSE 1mph /  1.6km/h 3mph /  4.8km/h 59.2% 0.00in /  0mm 504 W/m2
14:09 60.5 °F /  15.8 °C 45.7 °F /  7.6 °C 30.33in /  1027hPa WSW 1.3mph /  2.1km/h 4mph /  6.4km/h 58% 0.00in /  0mm 399 W/m2
14:14 60.4 °F /  15.8 °C 45.8 °F /  7.7 °C 30.33in /  1027hPa NW 0.9mph /  1.4km/h 4mph /  6.4km/h 58.6% 0.00in /  0mm 294 W/m2
14:19 60.2 °F /  15.7 °C 45.5 °F /  7.5 °C 30.33in /  1027hPa SE 1.2mph /  1.9km/h 5mph /  8km/h 58.2% 0.00in /  0mm 285 W/m2
14:24 59.9 °F /  15.5 °C 45.3 °F /  7.4 °C 30.32in /  1026.6hPa SE 0.9mph /  1.4km/h 3mph /  4.8km/h 58.4% 0.00in /  0mm 519 W/m2
14:29 60.2 °F /  15.7 °C 45.1 °F /  7.3 °C 30.32in /  1026.6hPa South 1.5mph /  2.4km/h 4mph /  6.4km/h 57.4% 0.00in /  0mm 573 W/m2
14:34 59.6 °F /  15.3 °C 44.4 °F /  6.9 °C 30.32in /  1026.6hPa South 2mph /  3.2km/h 6mph /  9.7km/h 57.2% 0.00in /  0mm 420 W/m2
14:39 58.7 °F /  14.8 °C 44.3 °F /  6.8 °C 30.32in /  1026.6hPa ESE 1.7mph /  2.7km/h 7mph /  11.3km/h 58.6% 0.00in /  0mm 548 W/m2
14:44 59.8 °F /  15.4 °C 45.5 °F /  7.5 °C 30.32in /  1026.6hPa NE 3.1mph /  5km/h 7mph /  11.3km/h 59.2% 0.00in /  0mm 464 W/m2
14:49 61.3 °F /  16.3 °C 45.8 °F /  7.7 °C 30.32in /  1026.6hPa ENE 1.7mph /  2.7km/h 6mph /  9.7km/h 56.8% 0.00in /  0mm 378 W/m2
14:54 62.1 °F /  16.7 °C 45.8 °F /  7.7 °C 30.32in /  1026.6hPa ESE 2.8mph /  4.5km/h 6mph /  9.7km/h 55.2% 0.00in /  0mm 246 W/m2
14:59 60.7 °F /  15.9 °C 44.8 °F /  7.1 °C 30.32in /  1026.6hPa SSE 2.4mph /  3.9km/h 5mph /  8km/h 56% 0.00in /  0mm 195 W/m2
15:04 58.8 °F /  14.9 °C 44.7 °F /  7.1 °C 30.32in /  1026.6hPa SSE 1.4mph /  2.3km/h 4mph /  6.4km/h 59.2% 0.00in /  0mm 179 W/m2
15:09 58.5 °F /  14.7 °C 44.5 °F /  6.9 °C 30.32in /  1026.6hPa SSE 1.6mph /  2.6km/h 5mph /  8km/h 59.6% 0.00in /  0mm 158 W/m2
15:14 58.3 °F /  14.6 °C 44.4 °F /  6.9 °C 30.31in /  1026.3hPa SSE 1.5mph /  2.4km/h 4mph /  6.4km/h 60% 0.00in /  0mm 139 W/m2
15:19 57.8 °F /  14.3 °C 44.2 °F /  6.8 °C 30.31in /  1026.3hPa SSE 0.4mph /  0.6km/h 3mph /  4.8km/h 60.4% 0.00in /  0mm 134 W/m2
15:24 57.9 °F /  14.4 °C 44.6 °F /  7 °C 30.32in /  1026.6hPa SSE 0.6mph /  1km/h 2mph /  3.2km/h 61% 0.00in /  0mm 153 W/m2
15:29 58.5 °F /  14.7 °C 45.1 °F /  7.3 °C 30.31in /  1026.3hPa SE 1.4mph /  2.3km/h 4mph /  6.4km/h 61% 0.00in /  0mm 137 W/m2
15:34 58.6 °F /  14.8 °C 45.1 °F /  7.3 °C 30.32in /  1026.6hPa SE 1.1mph /  1.8km/h 3mph /  4.8km/h 60.8% 0.00in /  0mm 218 W/m2
15:39 58.5 °F /  14.7 °C 45.1 °F /  7.3 °C 30.31in /  1026.3hPa Calm   2mph /  3.2km/h 61% 0.00in /  0mm 169 W/m2
15:44 58.9 °F /  14.9 °C 45.6 °F /  7.6 °C 30.31in /  1026.3hPa ESE 1.2mph /  1.9km/h 3mph /  4.8km/h 61.2% 0.00in /  0mm 288 W/m2
15:49 60 °F /  15.6 °C 46.6 °F /  8.1 °C 30.31in /  1026.3hPa ESE 1.3mph /  2.1km/h 3mph /  4.8km/h 61.2% 0.00in /  0mm 362 W/m2
15:54 60.6 °F /  15.9 °C 46.6 °F /  8.1 °C 30.31in /  1026.3hPa ESE 0.9mph /  1.4km/h 4mph /  6.4km/h 59.8% 0.00in /  0mm 350 W/m2
15:59 60.2 °F /  15.7 °C 45.7 °F /  7.6 °C 30.31in /  1026.3hPa SE 2.4mph /  3.9km/h 4mph /  6.4km/h 58.6% 0.00in /  0mm 309 W/m2
16:04 59.1 °F /  15.1 °C 45.2 °F /  7.3 °C 30.31in /  1026.3hPa SSE 0.7mph /  1.1km/h 4mph /  6.4km/h 60% 0.00in /  0mm 229 W/m2
16:09 58.6 °F /  14.8 °C 45 °F /  7.2 °C 30.31in /  1026.3hPa SSE 0.9mph /  1.4km/h 3mph /  4.8km/h 60.4% 0.00in /  0mm 236 W/m2
16:14 58.6 °F /  14.8 °C 44.8 °F /  7.1 °C 30.30in /  1026hPa SSE 0.6mph /  1km/h 3mph /  4.8km/h 60.2% 0.00in /  0mm 258 W/m2
16:19 59.1 °F /  15.1 °C 45.3 °F /  7.4 °C 30.30in /  1026hPa South 2.6mph /  4.2km/h 5mph /  8km/h 60.2% 0.00in /  0mm 253 W/m2
16:24 58.7 °F /  14.8 °C 44.9 °F /  7.2 °C 30.30in /  1026hPa SSW 1.5mph /  2.4km/h 5mph /  8km/h 60% 0.00in /  0mm 218 W/m2
16:29 59 °F /  15 °C 45.3 °F /  7.4 °C 30.30in /  1026hPa SSW 0.2mph /  0.3km/h 2mph /  3.2km/h 60.2% 0.00in /  0mm 232 W/m2
16:34 59.7 °F /  15.4 °C 45.4 °F /  7.4 °C 30.30in /  1026hPa SSW 0.8mph /  1.3km/h 3mph /  4.8km/h 59% 0.00in /  0mm 248 W/m2
16:39 60.1 °F /  15.6 °C 45.8 °F /  7.7 °C 30.30in /  1026hPa SSW 1.2mph /  1.9km/h 3mph /  4.8km/h 59.2% 0.00in /  0mm 220 W/m2
16:44 60.4 °F /  15.8 °C 45.8 °F /  7.7 °C 30.30in /  1026hPa SW 1.6mph /  2.6km/h 3mph /  4.8km/h 58.2% 0.00in /  0mm 209 W/m2
16:49 60.3 °F /  15.7 °C 45.5 °F /  7.5 °C 30.30in /  1026hPa WSW 2.1mph /  3.4km/h 5mph /  8km/h 58% 0.00in /  0mm 181 W/m2
16:54 59.9 °F /  15.5 °C 45.2 °F /  7.3 °C 30.30in /  1026hPa WSW 1.1mph /  1.8km/h 5mph /  8km/h 58.4% 0.00in /  0mm 169 W/m2
16:59 59.4 °F /  15.2 °C 45.3 °F /  7.4 °C 30.29in /  1025.6hPa WSW 0.8mph /  1.3km/h 4mph /  6.4km/h 59.6% 0.00in /  0mm 132 W/m2
17:04 59.5 °F /  15.3 °C 45.7 °F /  7.6 °C 30.29in /  1025.6hPa WSW 1.2mph /  1.9km/h 3mph /  4.8km/h 60% 0.00in /  0mm 120 W/m2
17:09 59.2 °F /  15.1 °C 45.4 °F /  7.4 °C 30.29in /  1025.6hPa WSW 1.6mph /  2.6km/h 4mph /  6.4km/h 60% 0.00in /  0mm 113 W/m2
17:14 58.8 °F /  14.9 °C 45.1 °F /  7.3 °C 30.29in /  1025.6hPa WSW 1.6mph /  2.6km/h 3mph /  4.8km/h 60.4% 0.00in /  0mm 104 W/m2
17:19 58.8 °F /  14.9 °C 45.1 °F /  7.3 °C 30.29in /  1025.6hPa WSW 1.3mph /  2.1km/h 3mph /  4.8km/h 60.2% 0.00in /  0mm 88 W/m2
17:24 58.7 °F /  14.8 °C 45 °F /  7.2 °C 30.29in /  1025.6hPa WSW 0.5mph /  0.8km/h 2mph /  3.2km/h 60.2% 0.00in /  0mm 51 W/m2
17:29 58.6 °F /  14.8 °C 45.3 °F /  7.4 °C 30.29in /  1025.6hPa WSW 0.5mph /  0.8km/h 3mph /  4.8km/h 61.2% 0.00in /  0mm 47 W/m2
17:34 58.2 °F /  14.6 °C 45.2 °F /  7.3 °C 30.29in /  1025.6hPa WSW 1mph /  1.6km/h 3mph /  4.8km/h 62% 0.00in /  0mm 33 W/m2
17:39 57.6 °F /  14.2 °C 45.4 °F /  7.4 °C 30.29in /  1025.6hPa Calm   1mph /  1.6km/h 63.6% 0.00in /  0mm 33 W/m2
17:44 57.4 °F /  14.1 °C 45.8 °F /  7.7 °C 30.29in /  1025.6hPa Calm     65.2% 0.00in /  0mm 32 W/m2
17:49 58 °F /  14.4 °C 47.5 °F /  8.6 °C 30.29in /  1025.6hPa Calm     67.8% 0.00in /  0mm 26 W/m2
17:54 58.7 °F /  14.8 °C 48.1 °F /  8.9 °C 30.28in /  1025.3hPa Calm     67.8% 0.00in /  0mm 23 W/m2
17:59 58.8 °F /  14.9 °C 47.8 °F /  8.8 °C 30.28in /  1025.3hPa Calm     67% 0.00in /  0mm 19 W/m2
18:04 58.6 °F /  14.8 °C 47.6 °F /  8.7 °C 30.28in /  1025.3hPa WSW 0.4mph /  0.6km/h 1mph /  1.6km/h 67% 0.00in /  0mm 18 W/m2
18:09 56.7 °F /  13.7 °C 46.5 °F /  8.1 °C 30.28in /  1025.3hPa WSW 0.5mph /  0.8km/h 1mph /  1.6km/h 68.8% 0.00in /  0mm 14 W/m2
18:14 55.1 °F /  12.8 °C 45.9 °F /  7.7 °C 30.28in /  1025.3hPa WSW 1.6mph /  2.6km/h 3mph /  4.8km/h 71.2% 0.00in /  0mm 11 W/m2
18:19 53.7 °F /  12.1 °C 45.3 °F /  7.4 °C 30.28in /  1025.3hPa WSW 2.4mph /  3.9km/h 3mph /  4.8km/h 73.2% 0.00in /  0mm 7 W/m2
18:24 53.1 °F /  11.7 °C 45.3 °F /  7.4 °C 30.28in /  1025.3hPa West 2.5mph /  4km/h 4mph /  6.4km/h 74.8% 0.00in /  0mm 0 W/m2
18:29 52.9 °F /  11.6 °C 45.3 °F /  7.4 °C 30.28in /  1025.3hPa West 2.5mph /  4km/h 4mph /  6.4km/h 75.4% 0.00in /  0mm 0 W/m2
18:34 52.8 °F /  11.6 °C 45.4 °F /  7.4 °C 30.28in /  1025.3hPa West 0.9mph /  1.4km/h 3mph /  4.8km/h 76% 0.00in /  0mm 0 W/m2
18:39 52.8 °F /  11.6 °C 45.6 °F /  7.6 °C 30.28in /  1025.3hPa Calm   1mph /  1.6km/h 76.6% 0.00in /  0mm 0 W/m2
18:44 52.9 °F /  11.6 °C 45.9 °F /  7.7 °C 30.28in /  1025.3hPa Calm     77% 0.00in /  0mm 0 W/m2
18:49 52.7 °F /  11.5 °C 45.7 °F /  7.6 °C 30.28in /  1025.3hPa Calm     77% 0.00in /  0mm 0 W/m2
18:54 51.7 °F /  10.9 °C 44.6 °F /  7 °C 30.28in /  1025.3hPa Calm     77% 0.00in /  0mm 0 W/m2
18:59 51.1 °F /  10.6 °C 44.1 °F /  6.7 °C 30.28in /  1025.3hPa Calm     77% 0.00in /  0mm 0 W/m2
19:04 50.8 °F /  10.4 °C 43.9 °F /  6.6 °C 30.28in /  1025.3hPa West 1.6mph /  2.6km/h 2mph /  3.2km/h 77.4% 0.00in /  0mm 0 W/m2
19:09 50.6 °F /  10.3 °C 44 °F /  6.7 °C 30.28in /  1025.3hPa West 2mph /  3.2km/h 3mph /  4.8km/h 78% 0.00in /  0mm 0 W/m2
19:14 50.5 °F /  10.3 °C 43.9 °F /  6.6 °C 30.28in /  1025.3hPa West 0.8mph /  1.3km/h 3mph /  4.8km/h 78% 0.00in /  0mm 0 W/m2
19:19 50.6 °F /  10.3 °C 44 °F /  6.7 °C 30.29in /  1025.6hPa Calm     78% 0.00in /  0mm 0 W/m2
19:24 51.2 °F /  10.7 °C 44.5 °F /  6.9 °C 30.29in /  1025.6hPa Calm     78% 0.00in /  0mm 0 W/m2
19:29 51.6 °F /  10.9 °C 45 °F /  7.2 °C 30.29in /  1025.6hPa Calm   1mph /  1.6km/h 78% 0.00in /  0mm 0 W/m2
19:34 52.2 °F /  11.2 °C 45.5 °F /  7.5 °C 30.28in /  1025.3hPa Calm   1mph /  1.6km/h 78% 0.00in /  0mm 0 W/m2
19:39 52.5 °F /  11.4 °C 45.9 °F /  7.7 °C 30.28in /  1025.3hPa West 0.8mph /  1.3km/h 2mph /  3.2km/h 78% 0.00in /  0mm 0 W/m2
19:44 52.9 °F /  11.6 °C 46.2 °F /  7.9 °C 30.28in /  1025.3hPa West 0.2mph /  0.3km/h 2mph /  3.2km/h 78% 0.00in /  0mm 0 W/m2
19:49 52.9 °F /  11.6 °C 45.9 °F /  7.7 °C 30.28in /  1025.3hPa Calm   1mph /  1.6km/h 77% 0.00in /  0mm 0 W/m2
19:54 52.7 °F /  11.5 °C 45.7 °F /  7.6 °C 30.28in /  1025.3hPa Calm     77% 0.00in /  0mm 0 W/m2
19:59 52.3 °F /  11.3 °C 45.2 °F /  7.3 °C 30.28in /  1025.3hPa Calm     77% 0.00in /  0mm 0 W/m2
20:04 51.4 °F /  10.8 °C 44.5 °F /  6.9 °C 30.28in /  1025.3hPa Calm     77.4% 0.00in /  0mm 0 W/m2
20:09 51.3 °F /  10.7 °C 44.6 °F /  7 °C 30.28in /  1025.3hPa Calm     78% 0.00in /  0mm 0 W/m2
20:14 51.2 °F /  10.7 °C 44.5 °F /  6.9 °C 30.28in /  1025.3hPa Calm     78% 0.00in /  0mm 0 W/m2
20:19 51.3 °F /  10.7 °C 44.6 °F /  7 °C 30.27in /  1024.9hPa Calm     78% 0.00in /  0mm 0 W/m2
20:24 51.1 °F /  10.6 °C 44.4 °F /  6.9 °C 30.27in /  1024.9hPa Calm   1mph /  1.6km/h 78% 0.00in /  0mm 0 W/m2
20:29 50.6 °F /  10.3 °C 43.9 °F /  6.6 °C 30.28in /  1025.3hPa Calm     78% 0.00in /  0mm 0 W/m2
20:34 50 °F /  10 °C 43.3 °F /  6.3 °C 30.28in /  1025.3hPa Calm   1mph /  1.6km/h 78% 0.00in /  0mm 0 W/m2
20:39 49.2 °F /  9.6 °C 42.6 °F /  5.9 °C 30.28in /  1025.3hPa Calm     78% 0.00in /  0mm 0 W/m2
20:44 48.5 °F /  9.2 °C 42 °F /  5.6 °C 30.28in /  1025.3hPa Calm     78% 0.00in /  0mm 0 W/m2
20:49 47.9 °F /  8.8 °C 41.4 °F /  5.2 °C 30.28in /  1025.3hPa Calm     78% 0.00in /  0mm 0 W/m2
20:54 47.6 °F /  8.7 °C 41.1 °F /  5.1 °C 30.28in /  1025.3hPa Calm     78% 0.00in /  0mm 0 W/m2
20:59 47.1 °F /  8.4 °C 41 °F /  5 °C 30.28in /  1025.3hPa Calm     79% 0.00in /  0mm 0 W/m2
21:04 46.8 °F /  8.2 °C 40.5 °F /  4.7 °C 30.28in /  1025.3hPa Calm     78.4% 0.00in /  0mm 0 W/m2
21:09 46.6 °F /  8.1 °C 40.5 °F /  4.7 °C 30.28in /  1025.3hPa Calm     79% 0.00in /  0mm 0 W/m2
21:14 46.2 °F /  7.9 °C 40.1 °F /  4.5 °C 30.28in /  1025.3hPa Calm     79% 0.00in /  0mm 0 W/m2
21:19 45.9 °F /  7.7 °C 39.7 °F /  4.3 °C 30.28in /  1025.3hPa Calm     79% 0.00in /  0mm 0 W/m2
21:24 45.7 °F /  7.6 °C 39.8 °F /  4.3 °C 30.28in /  1025.3hPa Calm     79.6% 0.00in /  0mm 0 W/m2
21:29 45.5 °F /  7.5 °C 39.7 °F /  4.3 °C 30.28in /  1025.3hPa Calm     80% 0.00in /  0mm 0 W/m2
21:34 45.3 °F /  7.4 °C 39.9 °F /  4.4 °C 30.28in /  1025.3hPa Calm     81% 0.00in /  0mm 0 W/m2
21:39 45.1 °F /  7.3 °C 39.7 °F /  4.3 °C 30.28in /  1025.3hPa Calm     81% 0.00in /  0mm 0 W/m2
21:44 45 °F /  7.2 °C 39.7 °F /  4.3 °C 30.28in /  1025.3hPa Calm     82% 0.00in /  0mm 0 W/m2
21:49 44.8 °F /  7.1 °C 39.6 °F /  4.2 °C 30.28in /  1025.3hPa Calm     82% 0.00in /  0mm 0 W/m2
21:54 44.8 °F /  7.1 °C 39.8 °F /  4.3 °C 30.28in /  1025.3hPa Calm     82.8% 0.00in /  0mm 0 W/m2
21:59 44.6 °F /  7 °C 39.7 °F /  4.3 °C 30.27in /  1024.9hPa Calm     83% 0.00in /  0mm 0 W/m2
22:04 44.2 °F /  6.8 °C 39.3 °F /  4.1 °C 30.27in /  1024.9hPa Calm     83% 0.00in /  0mm 0 W/m2
22:09 43.8 °F /  6.6 °C 39.2 °F /  4 °C 30.27in /  1024.9hPa Calm     83.8% 0.00in /  0mm 0 W/m2
22:14 43.6 °F /  6.4 °C 39.1 °F /  3.9 °C 30.27in /  1024.9hPa Calm     84% 0.00in /  0mm 0 W/m2
22:19 43.5 °F /  6.4 °C 39 °F /  3.9 °C 30.27in /  1024.9hPa Calm     84% 0.00in /  0mm 0 W/m2
22:24 43.6 °F /  6.4 °C 39.4 °F /  4.1 °C 30.27in /  1024.9hPa Calm     84.8% 0.00in /  0mm 0 W/m2
22:29 43.5 °F /  6.4 °C 39.4 °F /  4.1 °C 30.27in /  1024.9hPa Calm     85% 0.00in /  0mm 0 W/m2
22:34 43.4 °F /  6.3 °C 39.3 °F /  4.1 °C 30.27in /  1024.9hPa Calm     85% 0.00in /  0mm 0 W/m2
22:39 43.3 °F /  6.3 °C 39.2 °F /  4 °C 30.27in /  1024.9hPa Calm     85% 0.00in /  0mm 0 W/m2
22:44 43.3 °F /  6.3 °C 39.3 °F /  4.1 °C 30.27in /  1024.9hPa Calm     85.4% 0.00in /  0mm 0 W/m2
22:54 43.3 °F /  6.3 °C 39.4 °F /  4.1 °C 30.27in /  1024.9hPa Calm     86% 0.00in /  0mm 0 W/m2
22:59 43.3 °F /  6.3 °C 39.4 °F /  4.1 °C 30.26in /  1024.6hPa Calm     86% 0.00in /  0mm 0 W/m2
23:04 43.3 °F /  6.3 °C 39.4 °F /  4.1 °C 30.26in /  1024.6hPa Calm     86% 0.00in /  0mm 0 W/m2
23:09 43.2 °F /  6.2 °C 39.3 °F /  4.1 °C 30.26in /  1024.6hPa Calm     86% 0.00in /  0mm 0 W/m2
23:14 43.2 °F /  6.2 °C 39.2 °F /  4 °C 30.26in /  1024.6hPa Calm     86% 0.00in /  0mm 0 W/m2
23:19 43.2 °F /  6.2 °C 39.6 °F /  4.2 °C 30.26in /  1024.6hPa Calm     87% 0.00in /  0mm 0 W/m2
23:24 43.1 °F /  6.2 °C 39.5 °F /  4.2 °C 30.26in /  1024.6hPa Calm     87% 0.00in /  0mm 0 W/m2
23:29 43 °F /  6.1 °C 39.4 °F /  4.1 °C 30.26in /  1024.6hPa Calm     87% 0.00in /  0mm 0 W/m2
23:34 43 °F /  6.1 °C 39.4 °F /  4.1 °C 30.26in /  1024.6hPa Calm     87% 0.00in /  0mm 0 W/m2
23:39 43 °F /  6.1 °C 39.4 °F /  4.1 °C 30.26in /  1024.6hPa Calm     87% 0.00in /  0mm 0 W/m2
23:44 43 °F /  6.1 °C 39.4 °F /  4.1 °C 30.26in /  1024.6hPa Calm     87% 0.00in /  0mm 0 W/m2
23:49 43 °F /  6.1 °C 39.4 °F /  4.1 °C 30.26in /  1024.6hPa Calm     87% 0.00in /  0mm 0 W/m2
23:54 42.9 °F /  6.1 °C 39.5 °F /  4.2 °C 30.26in /  1024.6hPa Calm     87.6% 0.00in /  0mm 0 W/m2
23:59 42.7 °F /  5.9 °C 39.1 °F /  3.9 °C 30.26in /  1024.6hPa Calm     87% 0.00in /  0mm 0 W/m2
Bath Spa Weather
Compliments of Weather Underground - 2 mb